createdAt,value
2023-07-17T00:04:09.648Z,656.6577181208054
2023-07-17T00:07:38.673Z,618.9060402684564
2023-07-17T00:10:58.605Z,621.5838926174497
2023-07-17T00:14:20.338Z,628.993288590604
2023-07-17T00:17:40.327Z,646.8120805369127
2023-07-17T00:21:00.616Z,664.6711409395973
2023-07-17T00:24:21.090Z,685.751677852349
2023-07-17T00:27:41.919Z,686.0134228187919
2023-07-17T00:31:01.971Z,594.7046979865772
2023-07-17T00:34:22.100Z,621.9060402684564
2023-07-17T00:39:40.759Z,687.9463087248322
2023-07-17T00:45:48.004Z,647.5973154362416
2023-07-17T00:49:07.226Z,605.496644295302
2023-07-17T00:52:26.481Z,595.1879194630873
2023-07-17T00:57:16.032Z,618.9865771812081
2023-07-17T01:00:36.602Z,611.4563758389262
2023-07-17T01:04:49.318Z,641.5570469798657
2023-07-17T01:08:09.107Z,618.3221476510067
2023-07-17T01:11:30.483Z,575.2147651006711
2023-07-17T01:14:50.493Z,619.4496644295302
2023-07-17T01:18:12.561Z,553.248322147651
2023-07-17T01:21:32.605Z,599.1946308724832
2023-07-17T01:24:52.721Z,617.5570469798657
2023-07-17T01:28:13.114Z,638.4563758389262
2023-07-17T01:31:33.859Z,609.6241610738255
2023-07-17T01:34:54.021Z,610.2080536912752
2023-07-17T01:38:14.410Z,604.2684563758389
2023-07-17T01:41:34.007Z,606.1006711409397
2023-07-17T01:47:25.673Z,555.6845637583892
2023-07-17T01:50:46.264Z,614.496644295302
2023-07-17T01:54:06.923Z,627.7248322147651
2023-07-17T01:58:06.882Z,637.8322147651006
2023-07-17T02:01:26.837Z,642.6644295302013
2023-07-17T02:04:46.402Z,586.993288590604
2023-07-17T02:08:08.119Z,675.3422818791946
2023-07-17T02:11:28.015Z,634.6912751677852
2023-07-17T02:18:02.336Z,659.5973154362416
2023-07-17T02:21:23.276Z,680.0738255033557
2023-07-17T02:24:43.135Z,649.248322147651
2023-07-17T02:28:03.238Z,675.3020134228188
2023-07-17T02:31:23.550Z,628.7919463087248
2023-07-17T02:34:43.323Z,621.8053691275168
2023-07-17T02:38:03.628Z,641.7181208053692
2023-07-17T02:44:41.761Z,641.9395973154362
2023-07-17T02:48:01.049Z,620.7785234899329
2023-07-17T02:51:21.689Z,681.9463087248322
2023-07-17T02:54:41.749Z,678.5637583892617
2023-07-17T02:58:01.782Z,678.8456375838927
2023-07-17T03:02:59.770Z,676.8724832214765
2023-07-17T03:06:20.050Z,655.9731543624162
2023-07-17T03:09:40.850Z,693.3624161073825
2023-07-17T03:13:00.711Z,692.0939597315436
2023-07-17T03:16:21.104Z,641.5570469798657
2023-07-17T03:19:42.050Z,685.8724832214765
2023-07-17T03:23:01.838Z,654.9463087248322
2023-07-17T03:26:22.249Z,698.6577181208054
2023-07-17T03:29:42.208Z,629.9194630872483
2023-07-17T03:33:02.077Z,619.9127516778524
2023-07-17T03:36:22.399Z,655.751677852349
2023-07-17T03:39:42.375Z,634.8322147651006
2023-07-17T03:43:02.580Z,639.1610738255033
2023-07-17T03:46:23.314Z,662.1744966442953
2023-07-17T03:49:43.367Z,646.2885906040268
2023-07-17T03:53:03.365Z,643.0671140939597
2023-07-17T03:56:23.780Z,613.9731543624162
2023-07-17T03:59:44.025Z,636.1610738255033
2023-07-17T04:03:04.071Z,646.2684563758389
2023-07-17T04:06:24.629Z,693.0
2023-07-17T04:10:27.634Z,653.255033557047
2023-07-17T04:13:47.671Z,717.3825503355705
2023-07-17T04:17:08.108Z,653.9597315436241
2023-07-17T04:20:27.877Z,631.4093959731543
2023-07-17T04:23:47.850Z,699.4630872483222
2023-07-17T04:27:08.740Z,664.5503355704698
2023-07-17T04:30:29.578Z,633.8456375838927
2023-07-17T04:33:49.360Z,673.8926174496644
2023-07-17T04:37:19.086Z,644.1946308724832
2023-07-17T04:40:38.550Z,721.3489932885906
2023-07-17T04:43:58.642Z,823.5906040268457
2023-07-17T04:47:42.210Z,677.738255033557
2023-07-17T04:53:44.374Z,699.4228187919463
2023-07-17T04:57:06.933Z,650.2147651006711
2023-07-17T05:00:56.521Z,628.8120805369127
2023-07-17T05:04:40.171Z,649.9530201342282
2023-07-17T05:08:11.413Z,655.6912751677852
2023-07-17T05:11:30.729Z,688.9530201342282
2023-07-17T05:14:51.249Z,705.7852348993289
2023-07-17T05:18:20.307Z,663.6442953020135
2023-07-17T05:21:40.344Z,726.3422818791946
2023-07-17T05:25:00.531Z,675.5637583892617
2023-07-17T05:28:21.560Z,727.6308724832214
2023-07-17T05:31:41.406Z,615.9060402684564
2023-07-17T05:35:02.046Z,663.9463087248322
2023-07-17T05:38:22.527Z,655.4496644295302
2023-07-17T05:41:42.738Z,678.5436241610738
2023-07-17T05:45:41.121Z,645.2214765100671
2023-07-17T05:49:01.207Z,627.5436241610738
2023-07-17T05:52:22.325Z,667.8724832214765
2023-07-17T05:55:42.733Z,678.4026845637584
2023-07-17T06:04:09.353Z,682.6912751677852
2023-07-17T06:07:30.542Z,685.8322147651006
2023-07-17T06:10:50.527Z,704.8791946308725
2023-07-17T06:14:11.827Z,714.1409395973154
2023-07-17T06:17:32.126Z,649.993288590604
2023-07-17T06:20:52.202Z,686.5771812080537
2023-07-17T06:24:13.624Z,665.6778523489933
2023-07-17T06:27:34.225Z,627.5838926174497
2023-07-17T06:30:54.507Z,581.1543624161073
2023-07-17T06:34:15.537Z,623.9194630872483
2023-07-17T06:37:35.935Z,617.3557046979865
2023-07-17T06:40:56.221Z,574.6107382550335
2023-07-17T06:44:16.835Z,593.6577181208054
2023-07-17T06:47:38.380Z,584.4161073825503
2023-07-17T06:50:58.562Z,559.6107382550335
2023-07-17T06:54:18.399Z,544.1476510067114
2023-07-17T06:57:51.429Z,512.7583892617449
2023-07-17T07:02:51.136Z,544.3087248322148
2023-07-17T07:06:15.779Z,525.3221476510067
2023-07-17T07:09:35.777Z,462.22147651006713
2023-07-17T07:12:55.998Z,458.7986577181208
2023-07-17T07:17:37.548Z,428.5771812080537
2023-07-17T07:20:57.381Z,474.7046979865772
2023-07-17T07:25:09.049Z,476.03355704697987
2023-07-17T07:28:29.258Z,539.255033557047
2023-07-17T07:31:49.848Z,518.8187919463087
2023-07-17T07:35:11.369Z,519.503355704698
2023-07-17T07:38:33.163Z,536.7785234899329
2023-07-17T07:41:54.733Z,559.8322147651006
2023-07-17T07:45:14.726Z,538.9530201342282
2023-07-17T07:48:34.702Z,575.8993288590603
2023-07-17T07:51:54.611Z,559.006711409396
2023-07-17T07:55:14.828Z,546.3020134228188
2023-07-17T07:59:10.716Z,573.4228187919463
2023-07-17T08:02:31.678Z,570.5637583892617
2023-07-17T08:07:26.939Z,532.5704697986578
2023-07-17T08:10:47.435Z,554.6174496644295
2023-07-17T08:14:06.797Z,612.5637583892617
2023-07-17T08:18:29.473Z,490.9530201342282
2023-07-17T08:21:49.706Z,580.1073825503356
2023-07-17T08:25:09.666Z,650.6375838926175
2023-07-17T08:28:29.329Z,562.5302013422819
2023-07-17T08:31:49.150Z,594.8255033557047
2023-07-17T08:35:09.157Z,580.1275167785235
2023-07-17T08:38:31.197Z,587.1946308724832
2023-07-17T08:41:51.300Z,628.4295302013422
2023-07-17T08:45:11.260Z,683.4765100671141
2023-07-17T08:50:31.597Z,778.2080536912752
2023-07-17T08:53:51.399Z,810.744966442953
2023-07-17T08:57:11.941Z,775.8523489932886
2023-07-17T09:05:50.402Z,815.4161073825503
2023-07-17T09:09:12.222Z,828.8255033557047
2023-07-17T09:13:09.926Z,908.8187919463087
2023-07-17T09:16:29.655Z,870.3422818791946
2023-07-17T09:19:49.500Z,932.5570469798657
2023-07-17T09:23:09.070Z,879.1610738255033
2023-07-17T09:26:29.363Z,963.261744966443
2023-07-17T09:32:45.771Z,911.738255033557
2023-07-17T09:36:05.982Z,897.7046979865772
2023-07-17T09:39:26.595Z,951.0402684563759
2023-07-17T09:42:46.432Z,905.8590604026846
2023-07-17T09:46:06.449Z,882.9261744966443
2023-07-17T09:49:26.375Z,848.1744966442953
2023-07-17T09:52:46.238Z,902.3154362416108
2023-07-17T09:56:06.321Z,833.7785234899329
2023-07-17T09:59:27.329Z,829.1879194630873
2023-07-17T10:02:47.336Z,850.8523489932886
2023-07-17T10:06:07.711Z,777.0604026845638
2023-07-17T10:09:28.917Z,740.2348993288591
2023-07-17T10:12:49.220Z,797.1744966442953
2023-07-17T10:16:55.940Z,801.4630872483222
2023-07-17T10:20:16.285Z,753.2013422818792
2023-07-17T10:24:06.361Z,721.1073825503356
2023-07-17T10:27:26.356Z,787.7919463087248
2023-07-17T10:30:46.577Z,764.4362416107383
2023-07-17T10:34:06.342Z,840.9261744966443
2023-07-17T10:37:27.554Z,801.6644295302013
2023-07-17T10:40:47.984Z,802.5503355704698
2023-07-17T10:44:18.802Z,760.1073825503356
2023-07-17T10:47:39.722Z,795.48322147651
2023-07-17T10:50:59.900Z,891.8859060402684
2023-07-17T10:54:20.520Z,870.0402684563759
2023-07-17T10:57:39.773Z,843.8657718120805
2023-07-17T11:00:59.461Z,843.7852348993289
2023-07-17T11:04:19.410Z,807.4429530201343
2023-07-17T11:07:39.008Z,821.5973154362416
2023-07-17T11:10:58.698Z,844.8724832214765
2023-07-17T11:14:20.017Z,800.51677852349
2023-07-17T11:17:39.958Z,800.0335570469799
2023-07-17T11:21:00.077Z,771.2416107382551
2023-07-17T11:26:02.655Z,755.3557046979865
2023-07-17T11:32:12.237Z,773.0335570469799
2023-07-17T11:38:13.713Z,770.1946308724832
2023-07-17T11:41:34.016Z,818.5570469798657
2023-07-17T11:44:54.816Z,818.9597315436241
2023-07-17T11:48:16.032Z,895.3892617449665
2023-07-17T11:51:36.396Z,649.6912751677852
2023-07-17T11:54:56.712Z,471.0402684563758
2023-07-17T11:58:16.895Z,504.4228187919463
2023-07-17T12:01:36.521Z,583.1879194630873
2023-07-17T12:04:56.141Z,560.738255033557
2023-07-17T12:08:16.446Z,511.3691275167785
2023-07-17T12:11:36.081Z,582.7651006711409
2023-07-17T12:14:56.128Z,560.8187919463087
2023-07-17T12:18:27.081Z,629.6174496644295
2023-07-17T12:21:46.861Z,775.8322147651006
2023-07-17T12:25:07.137Z,678.7651006711409
2023-07-17T12:30:15.867Z,627.6442953020135
2023-07-17T12:33:36.275Z,602.5570469798657
2023-07-17T12:36:56.654Z,474.48322147651004
2023-07-17T12:40:16.757Z,423.26174496644296
2023-07-17T12:43:36.322Z,327.48322147651004
2023-07-17T12:46:56.321Z,335.496644295302
2023-07-17T12:50:16.406Z,304.2684563758389
2023-07-17T12:53:36.400Z,292.30872483221475
2023-07-17T12:56:56.365Z,290.758389261745
2023-07-17T13:00:16.266Z,243.26174496644296
2023-07-17T13:04:34.836Z,236.75838926174498
2023-07-17T13:08:26.353Z,257.8590604026846
2023-07-17T13:11:46.554Z,263.7986577181208
2023-07-17T13:15:07.344Z,282.6040268456376
2023-07-17T13:21:19.544Z,309.0
2023-07-17T13:24:40.065Z,326.03355704697987
2023-07-17T13:27:59.738Z,353.4161073825503
2023-07-17T13:33:55.677Z,448.30872483221475
2023-07-17T13:37:15.973Z,431.03355704697987
2023-07-17T13:40:35.956Z,511.4697986577181
2023-07-17T13:43:57.189Z,458.91946308724835
2023-07-17T13:47:17.521Z,590.496644295302
2023-07-17T13:50:37.572Z,612.9261744966443
2023-07-17T13:53:57.536Z,549.9463087248322
2023-07-17T13:57:20.294Z,592.3691275167786
2023-07-17T14:00:59.549Z,596.6375838926175
2023-07-17T14:04:20.132Z,637.510067114094
2023-07-17T14:07:40.217Z,598.0469798657718
2023-07-17T14:11:00.203Z,548.255033557047
2023-07-17T14:14:21.113Z,591.0201342281879
2023-07-17T14:20:28.245Z,649.6510067114094
2023-07-17T14:23:49.219Z,808.1879194630873
2023-07-17T14:27:09.585Z,964.0268456375838
2023-07-17T14:30:29.847Z,1014.5637583892617
2023-07-17T14:33:49.606Z,857.9798657718121
2023-07-17T14:37:09.720Z,760.1879194630873
2023-07-17T14:42:48.777Z,476.77852348993287
2023-07-17T14:46:08.725Z,461.8993288590604
2023-07-17T14:49:29.033Z,391.1476510067114
2023-07-17T14:52:48.683Z,375.9463087248322
2023-07-17T14:56:08.163Z,415.5302013422819
2023-07-17T14:59:28.538Z,408.36241610738256
2023-07-17T15:02:48.570Z,448.4295302013423
2023-07-17T15:06:08.632Z,483.76510067114094
2023-07-17T15:09:29.451Z,458.3557046979866
2023-07-17T15:12:52.823Z,364.6308724832215
2023-07-17T15:16:12.999Z,305.09395973154363
2023-07-17T15:19:33.476Z,294.5838926174497
2023-07-17T15:22:54.070Z,328.38926174496646
2023-07-17T15:26:15.893Z,303.38255033557044
2023-07-17T15:30:58.671Z,269.1140939597315
2023-07-17T15:34:18.837Z,313.71140939597313
2023-07-17T15:37:38.941Z,354.4228187919463
2023-07-17T15:40:58.820Z,292.8724832214765
2023-07-17T15:44:19.506Z,363.4228187919463
2023-07-17T15:47:39.037Z,459.32214765100673
2023-07-17T15:50:59.090Z,373.8523489932886
2023-07-17T15:54:19.609Z,451.40939597315435
2023-07-17T15:57:39.087Z,373.06711409395973
2023-07-17T16:00:59.270Z,423.6040268456376
2023-07-17T16:04:19.471Z,429.4429530201342
2023-07-17T16:07:39.736Z,421.6308724832215
2023-07-17T16:11:00.140Z,451.18791946308727
2023-07-17T16:14:20.170Z,499.9127516778523
2023-07-17T16:17:40.744Z,521.4563758389262
2023-07-17T16:21:01.061Z,523.6107382550335
2023-07-17T16:24:22.067Z,575.6778523489933
2023-07-17T16:27:41.911Z,612.2416107382551
2023-07-17T16:31:12.712Z,665.7986577181208
2023-07-17T16:34:32.457Z,641.0536912751678
2023-07-17T16:37:52.236Z,655.9127516778524
2023-07-17T16:41:13.320Z,684.9463087248322
2023-07-17T16:46:37.126Z,644.2751677852349
2023-07-17T16:49:56.938Z,694.6912751677852
2023-07-17T16:55:14.663Z,590.51677852349
2023-07-17T16:58:36.636Z,649.6308724832214
2023-07-17T17:01:56.774Z,561.503355704698
2023-07-17T17:05:16.606Z,536.496644295302
2023-07-17T17:10:05.517Z,558.2013422818792
2023-07-17T17:13:26.008Z,488.33557046979865
2023-07-17T17:16:46.290Z,506.13422818791946
2023-07-17T17:21:52.481Z,480.3020134228188
2023-07-17T17:31:00.209Z,401.71812080536915
2023-07-17T17:34:20.706Z,447.46308724832215
2023-07-17T17:37:57.135Z,392.3959731543624
2023-07-17T17:41:19.103Z,401.63758389261744
2023-07-17T17:44:54.517Z,387.90604026845637
2023-07-17T17:48:15.596Z,392.53691275167785
2023-07-17T17:51:38.492Z,412.20805369127515
2023-07-17T17:54:58.211Z,393.22147651006713
2023-07-17T17:58:18.898Z,405.56375838926175
2023-07-17T18:01:39.738Z,392.1543624161074
2023-07-17T18:05:00.495Z,419.03355704697987
2023-07-17T18:08:20.526Z,477.16107382550337
2023-07-17T18:12:33.952Z,445.3288590604027
2023-07-17T18:15:54.881Z,445.10738255033556
2023-07-17T18:19:45.190Z,446.1140939597315
2023-07-17T18:23:06.191Z,409.79194630872485
2023-07-17T18:26:26.975Z,412.6308724832215
2023-07-17T18:29:46.992Z,451.0268456375839
2023-07-17T18:33:07.223Z,403.9127516778523
2023-07-17T18:39:55.520Z,454.93288590604027
2023-07-17T18:43:15.564Z,427.6510067114094
2023-07-17T18:46:35.241Z,454.93288590604027
2023-07-17T18:49:56.563Z,416.23489932885906
2023-07-17T18:59:12.660Z,422.91946308724835
2023-07-17T19:03:17.909Z,407.93959731543623
2023-07-17T19:15:54.165Z,417.6845637583893
2023-07-17T19:19:15.347Z,462.96644295302013
2023-07-17T19:22:36.681Z,462.90604026845637
2023-07-17T19:25:57.349Z,449.77852348993287
2023-07-17T19:29:18.079Z,434.2953020134228
2023-07-17T19:32:39.101Z,429.9865771812081
2023-07-17T19:35:59.292Z,447.1006711409396
2023-07-17T19:39:21.301Z,475.06711409395973
2023-07-17T19:42:42.141Z,489.8456375838926
2023-07-17T19:47:44.257Z,363.38255033557044
2023-07-17T19:51:32.728Z,305.5570469798658
2023-07-17T19:54:52.313Z,294.4228187919463
2023-07-17T19:58:13.634Z,319.00671140939596
2023-07-17T20:01:33.696Z,319.4697986577181
2023-07-17T20:04:53.206Z,328.4697986577181
2023-07-17T20:10:07.756Z,337.5704697986577
2023-07-17T20:13:28.189Z,317.97986577181206
2023-07-17T20:16:48.443Z,379.3288590604027
2023-07-17T20:20:10.857Z,543.9060402684564
2023-07-17T20:23:31.995Z,1069.7919463087248
2023-07-17T20:26:58.740Z,1108.248322147651
2023-07-17T20:30:19.377Z,1017.261744966443
2023-07-17T20:33:40.272Z,1086.7852348993288
2023-07-17T20:37:00.542Z,1137.543624161074
2023-07-17T20:40:21.902Z,1023.6241610738255
2023-07-17T20:43:41.941Z,1003.3288590604027
2023-07-17T20:56:12.419Z,806.2953020134228
2023-07-17T21:00:04.979Z,796.4093959731543
2023-07-17T21:03:55.821Z,831.3020134228188
2023-07-17T21:08:31.260Z,722.255033557047
2023-07-17T21:14:01.617Z,819.4429530201343
2023-07-17T21:17:21.817Z,784.6510067114094
2023-07-17T21:24:36.982Z,759.9261744966443
2023-07-17T21:27:56.823Z,805.228187919463
2023-07-17T21:31:17.100Z,843.0604026845638
2023-07-17T21:34:37.175Z,835.3288590604027
2023-07-17T21:43:25.724Z,888.6241610738255
2023-07-17T21:46:46.945Z,905.51677852349
2023-07-17T21:50:07.358Z,877.8523489932886
2023-07-17T21:53:28.787Z,854.8389261744967
2023-07-17T21:56:48.459Z,829.6308724832214
2023-07-17T22:00:08.444Z,876.1610738255033
2023-07-17T22:03:28.855Z,839.9194630872483
2023-07-17T22:06:48.504Z,953.2348993288591
2023-07-17T22:10:08.634Z,879.2013422818792
2023-07-17T22:13:28.610Z,898.9530201342282
2023-07-17T22:16:48.582Z,937.3489932885906
2023-07-17T22:20:08.770Z,1168.1677852348994
2023-07-17T22:23:28.809Z,1359.5637583892617
2023-07-17T22:26:49.144Z,1285.0671140939598
2023-07-17T22:30:09.206Z,1211.1543624161075
2023-07-17T22:33:29.010Z,1011.1208053691275
2023-07-17T22:36:48.470Z,990.2214765100671
2023-07-17T22:40:08.086Z,1020.7852348993289
2023-07-17T22:46:33.810Z,959.2751677852349
2023-07-17T22:49:53.911Z,948.0201342281879
2023-07-17T22:53:13.801Z,984.5838926174497
2023-07-17T22:56:33.773Z,982.3892617449665
2023-07-17T22:59:54.097Z,954.0
2023-07-17T23:03:13.939Z,970.1275167785235
2023-07-17T23:06:33.759Z,994.7315436241611
2023-07-17T23:09:53.948Z,987.6040268456376
2023-07-17T23:13:28.764Z,1010.7986577181208
2023-07-17T23:16:49.387Z,1049.6778523489934
2023-07-17T23:20:09.882Z,1063.1879194630872
2023-07-17T23:23:31.032Z,1093.9530201342282
2023-07-17T23:26:51.069Z,1043.7181208053692
2023-07-17T23:30:13.632Z,1075.993288590604
2023-07-17T23:34:07.112Z,1087.6912751677853
2023-07-17T23:37:27.558Z,1109.234899328859
2023-07-17T23:40:47.252Z,1058.0536912751677
2023-07-17T23:44:07.231Z,1117.6107382550335
2023-07-17T23:47:28.153Z,1094.5570469798658
2023-07-17T23:50:48.549Z,1092.9261744966443
2023-07-17T23:54:07.922Z,1096.6912751677853
2023-07-17T23:57:27.993Z,1048.9731543624162
